Time;durP1;ratioP1;P1;durP2;ratioP2;P2;SDS_P1;SDS_P2;PMS_P1;PMS_P2;Temp;Humidity;BMP_temperature;BMP_pressure;BME280_temperature;BME280_humidity;BME280_pressure;Samples;Min_cycle;Max_cycle;Signal;HPM_P1;HPM_P2
2023/01/17 00:00:13;;;;;;;1.55;1.10;;;19.80;61.70;;;;;;4993035;28;20208;-67
2023/01/17 00:02:38;;;;;;;1.20;0.80;;;19.80;61.70;;;;;;4973559;28;20231;-67
2023/01/17 00:10:39;;;;;;;0.75;0.75;;;19.80;61.70;;;;;;4955941;28;20217;-67
2023/01/17 00:13:04;;;;;;;1.30;0.70;;;19.80;61.60;;;;;;4940785;28;20185;-67
2023/01/17 00:15:31;;;;;;;0.77;0.75;;;19.80;61.50;;;;;;4973722;28;20189;-67
2023/01/17 00:17:57;;;;;;;1.23;0.60;;;19.80;61.60;;;;;;4975456;28;20197;-67
2023/01/17 00:26:17;;;;;;;1.17;0.60;;;19.80;61.60;;;;;;4969779;28;20197;-67
2023/01/17 01:35:52;;;;;;;0.57;0.57;;;19.80;61.60;;;;;;4995319;28;20196;-67
2023/01/17 01:38:24;;;;;;;1.73;0.50;;;19.80;61.60;;;;;;4978244;28;20198;-67
2023/01/17 01:40:54;;;;;;;1.00;0.60;;;19.80;61.50;;;;;;4952986;28;20220;-67
2023/01/17 01:43:54;;;;;;;0.77;0.63;;;19.80;61.50;;;;;;4977777;28;20275;-67
2023/01/17 01:46:35;;;;;;;0.95;0.60;;;19.80;61.60;;;;;;4989747;28;20220;-67
2023/01/17 01:49:23;;;;;;;0.98;0.55;;;19.80;61.60;;;;;;4986723;28;20294;-67
2023/01/17 01:52:01;;;;;;;0.60;0.50;;;19.80;61.60;;;;;;4962040;28;20218;-67
2023/01/17 01:54:48;;;;;;;1.23;0.50;;;19.80;61.50;;;;;;4961537;28;20279;-67
2023/01/17 01:57:19;;;;;;;1.30;0.70;;;19.80;61.50;;;;;;4961576;28;20181;-67
2023/01/17 01:59:53;;;;;;;1.33;0.57;;;19.80;61.50;;;;;;4994767;28;20220;-67
2023/01/17 02:02:19;;;;;;;0.57;0.57;;;19.80;61.50;;;;;;4977586;28;20188;-67
2023/01/17 02:04:45;;;;;;;0.50;0.40;;;19.80;61.50;;;;;;4982933;28;20192;-67
2023/01/17 02:07:22;;;;;;;0.95;0.70;;;19.80;61.40;;;;;;4969579;28;20235;-67
2023/01/17 02:09:49;;;;;;;2.15;0.60;;;19.80;61.40;;;;;;4976900;28;20223;-67
2023/01/17 02:12:16;;;;;;;0.50;0.50;;;19.80;61.40;;;;;;4977279;28;20185;-67
2023/01/17 02:14:42;;;;;;;0.45;0.45;;;19.80;61.40;;;;;;4993511;28;20192;-67
2023/01/17 02:17:51;;;;;;;1.25;0.70;;;19.80;61.40;;;;;;4977004;28;20200;-67
2023/01/17 02:20:51;;;;;;;1.05;0.50;;;19.80;61.40;;;;;;4994648;28;20215;-67
2023/01/17 02:24:06;;;;;;;0.52;0.50;;;19.80;61.50;;;;;;4972169;28;20201;-67
2023/01/17 02:26:52;;;;;;;0.65;0.50;;;19.80;61.40;;;;;;4981877;28;20197;-68
2023/01/17 02:30:08;;;;;;;0.52;0.40;;;19.80;61.30;;;;;;4976801;28;20224;-67
2023/01/17 02:33:02;;;;;;;0.70;0.70;;;19.80;61.30;;;;;;4977238;28;20210;-67
2023/01/17 02:36:11;;;;;;;0.40;0.40;;;19.80;61.20;;;;;;4956995;28;20204;-66
2023/01/17 02:38:51;;;;;;;0.50;0.40;;;19.80;61.30;;;;;;4936466;29;20231;-66
2023/01/17 02:41:25;;;;;;;0.50;0.50;;;19.80;61.20;;;;;;4910212;29;20198;-67
2023/01/17 02:43:52;;;;;;;0.90;0.65;;;19.80;61.20;;;;;;4977806;28;20201;-67
2023/01/17 02:46:18;;;;;;;0.50;0.50;;;19.80;61.20;;;;;;4976703;28;20212;-67
2023/01/17 02:48:46;;;;;;;0.60;0.60;;;19.80;61.10;;;;;;4976482;28;20204;-66
2023/01/17 02:51:55;;;;;;;0.63;0.57;;;19.80;61.10;;;;;;4976806;28;20673;-67
2023/01/17 02:55:00;;;;;;;0.30;0.30;;;19.80;61.10;;;;;;4976821;28;20189;-67
2023/01/17 02:58:13;;;;;;;0.68;0.60;;;19.80;61.00;;;;;;4973420;28;20204;-67
2023/01/17 03:00:51;;;;;;;0.60;0.60;;;19.80;61.00;;;;;;4946865;28;20209;-67
2023/01/17 03:03:43;;;;;;;0.52;0.40;;;19.80;60.90;;;;;;4976438;28;20251;-66
2023/01/17 03:06:16;;;;;;;0.40;0.40;;;19.80;61.00;;;;;;4975663;28;20193;-67
2023/01/17 03:08:46;;;;;;;0.77;0.50;;;19.80;60.80;;;;;;4959423;28;20216;-65
2023/01/17 03:11:13;;;;;;;0.47;0.47;;;19.80;61.00;;;;;;4976118;28;20189;-67
2023/01/17 03:13:40;;;;;;;0.40;0.40;;;19.80;60.90;;;;;;4976393;28;20224;-67
2023/01/17 03:16:16;;;;;;;0.30;0.30;;;19.80;61.80;;;;;;4959253;28;20197;-67
2023/01/17 03:18:42;;;;;;;0.47;0.47;;;19.80;60.80;;;;;;4975635;28;20228;-65
2023/01/17 03:21:08;;;;;;;0.50;0.50;;;19.80;60.80;;;;;;4973656;28;20194;-67
2023/01/17 03:23:34;;;;;;;0.40;0.40;;;19.80;60.70;;;;;;4959627;28;20188;-67
2023/01/17 03:25:59;;;;;;;0.88;0.40;;;19.80;60.60;;;;;;4975809;28;20673;-67
2023/01/17 03:28:25;;;;;;;0.47;0.47;;;19.80;60.70;;;;;;4959591;28;20259;-67
2023/01/17 03:30:51;;;;;;;0.85;0.47;;;19.80;60.80;;;;;;4965717;28;20223;-67
2023/01/17 03:33:17;;;;;;;0.70;0.60;;;19.80;60.70;;;;;;4954004;28;20196;-67
2023/01/17 03:35:46;;;;;;;0.93;0.40;;;19.80;60.60;;;;;;4951724;28;20289;-66
2023/01/17 03:38:13;;;;;;;0.50;0.50;;;19.80;60.60;;;;;;4954721;28;20185;-67
2023/01/17 03:40:40;;;;;;;0.65;0.60;;;19.80;60.60;;;;;;4973023;28;20625;-66
2023/01/17 03:43:06;;;;;;;0.40;0.40;;;19.80;60.60;;;;;;4963481;28;20194;-67
2023/01/17 03:45:32;;;;;;;1.23;0.70;;;19.80;60.60;;;;;;4963291;28;20192;-68
2023/01/17 03:47:59;;;;;;;0.50;0.50;;;19.80;60.60;;;;;;4975363;28;20185;-68
2023/01/17 03:50:26;;;;;;;0.47;0.47;;;19.80;60.60;;;;;;4986131;28;20289;-67
2023/01/17 03:52:51;;;;;;;0.45;0.40;;;19.70;60.50;;;;;;4983427;28;20217;-67
2023/01/17 03:55:17;;;;;;;0.40;0.40;;;19.80;60.70;;;;;;4951519;28;20216;-67
2023/01/17 03:57:43;;;;;;;0.75;0.50;;;19.80;60.60;;;;;;4975381;28;20268;-67
2023/01/17 04:00:10;;;;;;;0.40;0.40;;;19.80;60.60;;;;;;4956119;28;20296;-67
2023/01/17 04:02:36;;;;;;;0.35;0.35;;;19.80;60.60;;;;;;4989645;28;20200;-67
2023/01/17 04:05:02;;;;;;;0.82;0.50;;;19.80;60.60;;;;;;4959216;28;20239;-67
2023/01/17 04:07:28;;;;;;;0.40;0.40;;;19.80;60.60;;;;;;4975425;28;20195;-67
2023/01/17 04:09:53;;;;;;;0.75;0.50;;;19.80;60.60;;;;;;4959038;28;20212;-67
2023/01/17 04:12:19;;;;;;;0.50;0.50;;;19.80;60.60;;;;;;4975319;28;20204;-67
2023/01/17 04:14:45;;;;;;;0.47;0.38;;;19.80;60.60;;;;;;4975261;28;20192;-67
2023/01/17 04:17:13;;;;;;;0.50;0.50;;;19.80;60.60;;;;;;4975199;28;20177;-67
2023/01/17 04:19:39;;;;;;;0.50;0.50;;;19.80;60.60;;;;;;4958775;28;20216;-67
2023/01/17 04:22:06;;;;;;;0.57;0.57;;;19.80;60.60;;;;;;4992673;28;20196;-67
2023/01/17 04:24:32;;;;;;;0.65;0.50;;;19.80;60.60;;;;;;4975206;28;20223;-67
2023/01/17 04:26:57;;;;;;;0.60;0.60;;;19.80;60.60;;;;;;4976062;28;20227;-67
2023/01/17 04:29:23;;;;;;;0.30;0.30;;;19.80;60.60;;;;;;4962839;28;20209;-67
2023/01/17 04:31:49;;;;;;;0.55;0.50;;;19.80;60.50;;;;;;4979319;28;20271;-67
2023/01/17 04:34:14;;;;;;;0.40;0.40;;;19.80;60.50;;;;;;4979113;28;20605;-67
2023/01/17 04:36:40;;;;;;;0.60;0.40;;;19.80;60.30;;;;;;4996382;28;20185;-67
2023/01/17 04:39:06;;;;;;;0.40;0.40;;;19.80;60.40;;;;;;4962488;28;20235;-68
2023/01/17 04:41:32;;;;;;;0.88;0.50;;;19.80;60.20;;;;;;4996513;28;20212;-67
2023/01/17 04:43:58;;;;;;;0.70;0.68;;;19.80;60.30;;;;;;4978822;28;20200;-67
2023/01/17 04:46:24;;;;;;;0.80;0.80;;;19.80;60.30;;;;;;4996303;28;20196;-67
2023/01/17 04:48:50;;;;;;;0.75;0.38;;;19.80;60.30;;;;;;4978628;28;20204;-67
2023/01/17 04:51:15;;;;;;;1.02;0.60;;;19.80;60.20;;;;;;4979265;28;20225;-67
2023/01/17 04:53:41;;;;;;;0.82;0.70;;;19.80;60.20;;;;;;4978617;28;20228;-67
2023/01/17 04:56:07;;;;;;;0.73;0.68;;;19.80;60.20;;;;;;4978763;28;20686;-67
2023/01/17 04:58:33;;;;;;;0.88;0.88;;;19.80;60.10;;;;;;4978587;28;20192;-67
2023/01/17 05:01:07;;;;;;;0.98;0.60;;;19.80;60.20;;;;;;4962099;28;20593;-66
2023/01/17 05:03:33;;;;;;;0.50;0.50;;;19.80;60.10;;;;;;4959349;28;20275;-67
2023/01/17 05:06:00;;;;;;;0.70;0.70;;;19.80;60.20;;;;;;4977628;28;20195;-67
2023/01/17 05:08:26;;;;;;;0.80;0.70;;;19.80;60.10;;;;;;4962290;28;20669;-67
2023/01/17 05:10:53;;;;;;;0.80;0.80;;;19.80;60.10;;;;;;4978204;28;20239;-67
2023/01/17 05:13:19;;;;;;;0.50;0.50;;;19.80;60.00;;;;;;4978427;28;20324;-67
2023/01/17 05:15:45;;;;;;;1.23;0.70;;;19.80;60.00;;;;;;4962395;28;20189;-67
2023/01/17 05:18:14;;;;;;;1.00;0.75;;;19.80;60.00;;;;;;4995691;28;20191;-67
2023/01/17 05:20:40;;;;;;;0.90;0.90;;;19.80;60.00;;;;;;4978189;28;20658;-67
2023/01/17 05:23:06;;;;;;;0.70;0.70;;;19.80;59.90;;;;;;4978184;28;20192;-67
2023/01/17 05:25:33;;;;;;;0.70;0.70;;;19.80;59.90;;;;;;4978355;28;20185;-67
2023/01/17 05:27:59;;;;;;;0.90;0.90;;;19.80;59.90;;;;;;4995756;28;20559;-66
2023/01/17 05:30:28;;;;;;;1.15;1.05;;;19.80;59.80;;;;;;4961973;28;20215;-67
2023/01/17 05:32:57;;;;;;;0.60;0.60;;;19.80;59.90;;;;;;4978317;28;20195;-67
2023/01/17 05:35:27;;;;;;;0.80;0.80;;;19.80;59.90;;;;;;4978068;28;20209;-67
2023/01/17 05:37:54;;;;;;;1.10;0.85;;;19.80;59.80;;;;;;4994193;28;20200;-67
2023/01/17 05:40:24;;;;;;;1.13;0.88;;;19.80;59.80;;;;;;4976855;28;20208;-67
2023/01/17 05:42:53;;;;;;;0.95;0.95;;;19.80;60.50;;;;;;4995293;28;20215;-67
2023/01/17 05:45:21;;;;;;;1.17;1.08;;;19.80;59.80;;;;;;4961707;28;20612;-67
2023/01/17 05:47:50;;;;;;;1.00;0.90;;;19.80;59.70;;;;;;4977651;28;20672;-67
2023/01/17 05:50:26;;;;;;;1.65;1.55;;;19.80;59.70;;;;;;4994538;28;20606;-67
2023/01/17 05:52:56;;;;;;;3.70;3.05;;;19.80;59.80;;;;;;4982266;28;20188;-67
2023/01/17 05:55:24;;;;;;;3.60;2.70;;;19.80;59.70;;;;;;4977570;28;20276;-67
2023/01/17 05:57:50;;;;;;;3.75;2.90;;;19.80;59.70;;;;;;4969516;28;20195;-67
2023/01/17 06:00:17;;;;;;;3.42;2.95;;;19.80;59.70;;;;;;4961045;28;20211;-67
2023/01/17 06:02:44;;;;;;;3.05;2.72;;;19.80;59.70;;;;;;4961292;28;20223;-67
2023/01/17 06:05:10;;;;;;;3.25;2.90;;;19.80;59.60;;;;;;4953593;28;20185;-67
2023/01/17 06:07:37;;;;;;;3.25;2.95;;;19.80;59.60;;;;;;4977319;28;20197;-66
2023/01/17 06:10:03;;;;;;;3.45;3.15;;;19.80;59.70;;;;;;4960849;28;20213;-69
2023/01/17 06:12:29;;;;;;;4.03;3.60;;;19.80;59.60;;;;;;4961390;28;20208;-68
2023/01/17 06:14:55;;;;;;;3.67;3.28;;;19.80;59.60;;;;;;4977393;28;20708;-70
2023/01/17 06:17:21;;;;;;;4.32;3.50;;;19.80;59.60;;;;;;4972646;28;20185;-68
2023/01/17 06:19:47;;;;;;;4.07;3.33;;;19.80;59.60;;;;;;4957161;28;20753;-68
2023/01/17 06:22:12;;;;;;;4.75;3.65;;;19.80;59.60;;;;;;4960586;28;20734;-68
2023/01/17 06:24:38;;;;;;;3.85;3.45;;;19.80;59.50;;;;;;4976697;28;20189;-68
2023/01/17 06:27:04;;;;;;;5.40;3.42;;;19.80;59.50;;;;;;4976367;28;20203;-68
2023/01/17 06:29:30;;;;;;;4.60;3.78;;;19.80;59.50;;;;;;4959940;28;20228;-69
2023/01/17 06:31:55;;;;;;;4.68;3.38;;;19.80;59.50;;;;;;4960421;28;20193;-69
2023/01/17 06:34:21;;;;;;;4.53;3.90;;;19.80;59.50;;;;;;4979056;28;20200;-67
2023/01/17 06:36:47;;;;;;;4.60;3.65;;;19.80;59.50;;;;;;4978259;28;20188;-67
2023/01/17 06:39:13;;;;;;;3.92;3.35;;;19.80;59.40;;;;;;4972228;28;20212;-68
2023/01/17 06:41:38;;;;;;;4.35;3.45;;;19.80;59.50;;;;;;4964832;28;20280;-68
2023/01/17 06:44:06;;;;;;;4.30;3.90;;;19.80;59.50;;;;;;4957482;28;20193;-68
2023/01/17 06:46:32;;;;;;;3.40;3.10;;;19.80;59.40;;;;;;4941364;28;20216;-67
2023/01/17 06:48:57;;;;;;;3.55;3.17;;;19.80;59.40;;;;;;4949662;28;20702;-68
2023/01/17 06:51:23;;;;;;;5.22;3.90;;;19.80;59.40;;;;;;4951412;28;20185;-68
2023/01/17 06:53:49;;;;;;;4.38;3.53;;;19.80;59.40;;;;;;4959436;28;20184;-68
2023/01/17 06:56:15;;;;;;;3.53;3.20;;;19.80;59.30;;;;;;4975283;28;20216;-68
2023/01/17 06:58:40;;;;;;;3.03;2.70;;;19.80;59.30;;;;;;4975729;28;20189;-67
2023/01/17 07:01:09;;;;;;;4.63;3.47;;;19.80;59.30;;;;;;4975876;28;20576;-67
2023/01/17 07:03:35;;;;;;;4.28;2.75;;;19.80;59.30;;;;;;4993245;28;20192;-67
2023/01/17 07:06:01;;;;;;;3.88;3.40;;;19.80;59.40;;;;;;4959811;28;20287;-67
2023/01/17 07:08:28;;;;;;;3.88;3.30;;;19.80;59.30;;;;;;4975062;28;20188;-68
2023/01/17 07:11:01;;;;;;;3.38;2.97;;;19.80;59.30;;;;;;4976231;28;20224;-68
2023/01/17 07:13:29;;;;;;;3.15;2.80;;;19.80;59.30;;;;;;4993375;28;20213;-68
2023/01/17 07:15:58;;;;;;;3.85;3.20;;;19.80;59.30;;;;;;4976205;28;20184;-67
2023/01/17 07:18:24;;;;;;;3.22;2.90;;;19.80;59.30;;;;;;4975884;28;20219;-68
2023/01/17 07:20:51;;;;;;;3.17;2.85;;;19.80;59.20;;;;;;4959342;28;20200;-68
2023/01/17 07:23:20;;;;;;;3.60;2.83;;;19.80;59.30;;;;;;4967731;28;20247;-68
2023/01/17 07:25:58;;;;;;;3.08;2.63;;;19.80;59.20;;;;;;4975568;28;20220;-67
2023/01/17 07:28:26;;;;;;;3.17;2.85;;;19.80;59.30;;;;;;4975367;28;20188;-68
2023/01/17 07:30:53;;;;;;;3.25;2.90;;;19.80;59.20;;;;;;4972543;28;20221;-67
2023/01/17 07:33:20;;;;;;;3.55;2.60;;;19.80;59.10;;;;;;4975518;28;20227;-68
2023/01/17 07:35:46;;;;;;;4.68;3.53;;;19.80;59.10;;;;;;4959427;28;20185;-67
2023/01/17 07:38:18;;;;;;;3.85;3.40;;;19.80;59.10;;;;;;4959199;28;20192;-68
2023/01/17 07:40:45;;;;;;;3.65;3.35;;;19.80;59.00;;;;;;4975224;28;20232;-68
2023/01/17 07:43:15;;;;;;;4.53;3.78;;;19.80;59.00;;;;;;4975240;28;20292;-68
2023/01/17 07:45:50;;;;;;;5.72;4.30;;;19.80;59.00;;;;;;4975374;28;20192;-68
2023/01/17 07:48:18;;;;;;;5.35;4.28;;;19.70;58.70;;;;;;4959052;28;20176;-68
2023/01/17 07:50:50;;;;;;;5.60;4.07;;;19.80;58.90;;;;;;4958849;28;20216;-67
2023/01/17 07:53:16;;;;;;;4.03;3.63;;;19.70;58.90;;;;;;4959441;28;20621;-68
2023/01/17 07:55:42;;;;;;;5.30;4.60;;;19.70;58.90;;;;;;4959936;28;20650;-68
2023/01/17 07:58:10;;;;;;;4.60;4.20;;;19.80;58.90;;;;;;4960027;28;20193;-68
2023/01/17 08:00:35;;;;;;;5.85;4.75;;;19.80;58.90;;;;;;4974556;28;20212;-67
2023/01/17 08:03:01;;;;;;;5.45;4.65;;;19.80;58.90;;;;;;4991959;28;20204;-67
2023/01/17 08:05:29;;;;;;;5.72;4.72;;;19.80;58.90;;;;;;4951184;28;20204;-68
2023/01/17 08:07:55;;;;;;;5.72;4.50;;;19.80;58.80;;;;;;4958408;28;20248;-67
2023/01/17 08:10:21;;;;;;;5.03;4.53;;;19.80;58.80;;;;;;4967317;28;20220;-68
2023/01/17 08:12:49;;;;;;;5.43;4.35;;;19.80;58.80;;;;;;4958934;28;20231;-67
2023/01/17 08:15:16;;;;;;;5.00;3.85;;;19.80;58.80;;;;;;4974927;28;20185;-68
2023/01/17 08:17:53;;;;;;;5.53;4.65;;;19.80;58.80;;;;;;4953519;28;20280;-68
2023/01/17 08:20:19;;;;;;;5.45;4.95;;;19.80;58.80;;;;;;4992048;28;20278;-68
2023/01/17 08:22:45;;;;;;;5.00;4.38;;;19.80;58.80;;;;;;4959017;28;20188;-68
2023/01/17 08:25:12;;;;;;;5.03;3.85;;;19.80;58.80;;;;;;4958748;28;20223;-67
2023/01/17 08:27:38;;;;;;;5.18;3.85;;;19.80;58.80;;;;;;4958771;28;20193;-68
2023/01/17 08:30:06;;;;;;;4.53;4.13;;;19.80;58.70;;;;;;4974401;28;20271;-68
2023/01/17 08:32:32;;;;;;;4.95;4.18;;;19.80;58.70;;;;;;4974583;28;20355;-67
2023/01/17 08:34:58;;;;;;;4.43;3.95;;;19.80;58.70;;;;;;4966778;28;20201;-68
2023/01/17 08:37:23;;;;;;;5.45;4.20;;;19.80;58.70;;;;;;4992395;28;20239;-68
2023/01/17 08:39:49;;;;;;;4.80;4.30;;;19.80;58.60;;;;;;4958530;28;20208;-67
2023/01/17 08:42:15;;;;;;;4.70;4.25;;;19.80;58.70;;;;;;4958679;28;20260;-68
2023/01/17 08:44:42;;;;;;;3.80;3.47;;;19.80;58.70;;;;;;4958591;28;20192;-67
2023/01/17 08:47:08;;;;;;;4.13;3.72;;;19.80;58.70;;;;;;4974462;28;20607;-68
2023/01/17 08:49:34;;;;;;;4.15;3.75;;;19.80;58.60;;;;;;4974412;28;20278;-67
2023/01/17 08:52:00;;;;;;;4.30;3.72;;;19.80;58.60;;;;;;4950569;28;20192;-67
2023/01/17 08:54:26;;;;;;;4.82;4.00;;;19.80;58.60;;;;;;4974502;28;20185;-68
2023/01/17 08:56:51;;;;;;;4.00;3.60;;;19.80;58.60;;;;;;4974561;28;20212;-67
2023/01/17 08:59:17;;;;;;;3.90;3.60;;;19.80;58.60;;;;;;4958087;28;20217;-67
2023/01/17 09:01:44;;;;;;;4.03;3.63;;;19.80;58.60;;;;;;4971240;28;20201;-68
2023/01/17 09:04:14;;;;;;;5.25;3.97;;;19.80;58.60;;;;;;4987132;28;20250;-68
2023/01/17 09:06:47;;;;;;;3.90;3.50;;;19.80;58.60;;;;;;4974685;28;20196;-68
2023/01/17 09:09:16;;;;;;;4.32;3.42;;;19.90;58.60;;;;;;4966141;28;20236;-67
2023/01/17 09:11:42;;;;;;;4.40;4.00;;;19.90;58.60;;;;;;4974558;28;20189;-67
2023/01/17 09:14:10;;;;;;;4.03;3.42;;;19.80;58.50;;;;;;4975348;28;20204;-67
2023/01/17 09:16:36;;;;;;;3.88;3.47;;;19.80;58.50;;;;;;4962084;28;20189;-67
2023/01/17 09:19:02;;;;;;;4.18;3.78;;;19.80;58.50;;;;;;4985819;28;20213;-67
2023/01/17 09:21:28;;;;;;;4.35;3.55;;;19.80;58.40;;;;;;4961823;28;20224;-67
2023/01/17 09:23:54;;;;;;;4.07;3.63;;;19.90;58.50;;;;;;4993943;28;20193;-67
2023/01/17 09:26:27;;;;;;;4.60;3.83;;;19.90;58.40;;;;;;4977739;28;20189;-67
2023/01/17 09:28:53;;;;;;;4.20;3.30;;;19.90;58.50;;;;;;4977444;28;20221;-68
2023/01/17 09:31:22;;;;;;;5.25;3.55;;;19.90;58.50;;;;;;4974860;28;20197;-68
2023/01/17 09:33:52;;;;;;;3.35;3.05;;;19.80;58.40;;;;;;4957197;28;20185;-68
2023/01/17 09:36:19;;;;;;;3.97;3.58;;;19.80;58.40;;;;;;4977676;28;20272;-68
2023/01/17 09:38:45;;;;;;;3.50;3.17;;;19.80;58.40;;;;;;4961222;28;20228;-65
2023/01/17 09:41:28;;;;;;;3.40;3.10;;;19.90;58.50;;;;;;4977384;28;20196;-68
2023/01/17 09:44:24;;;;;;;3.70;3.10;;;19.90;58.40;;;;;;4977832;28;20280;-68
2023/01/17 09:47:20;;;;;;;3.20;2.90;;;19.90;58.30;;;;;;4977724;28;20666;-68
2023/01/17 09:49:46;;;;;;;3.53;3.22;;;19.90;58.40;;;;;;4994312;28;20228;-68
2023/01/17 09:52:20;;;;;;;3.67;2.97;;;19.80;58.20;;;;;;4977331;28;20184;-68
2023/01/17 09:54:48;;;;;;;3.30;3.00;;;19.90;58.20;;;;;;4966871;28;20199;-67
2023/01/17 09:57:55;;;;;;;3.40;3.10;;;19.90;58.30;;;;;;4977284;28;20185;-67
2023/01/17 10:00:42;;;;;;;3.22;2.88;;;19.90;58.30;;;;;;4977149;28;20291;-67
2023/01/17 10:04:01;;;;;;;3.92;3.22;;;19.90;58.20;;;;;;4977180;28;20323;-68
2023/01/17 10:06:58;;;;;;;3.58;2.90;;;19.90;58.20;;;;;;4960644;28;20228;-68
2023/01/17 10:09:49;;;;;;;3.88;2.63;;;19.90;58.20;;;;;;4958079;28;20233;-68
2023/01/17 10:13:01;;;;;;;3.17;2.88;;;19.90;58.20;;;;;;4960474;28;20193;-67
2023/01/17 10:15:45;;;;;;;2.85;2.65;;;19.90;58.20;;;;;;4953584;28;20223;-68
2023/01/17 10:18:51;;;;;;;3.28;2.97;;;19.90;58.20;;;;;;4961376;28;20197;-67
2023/01/17 10:21:49;;;;;;;2.95;2.65;;;19.90;58.20;;;;;;4976584;28;20204;-66
2023/01/17 10:25:17;;;;;;;2.72;2.42;;;19.90;58.20;;;;;;4969374;28;20197;-68
2023/01/17 10:27:50;;;;;;;3.28;2.58;;;19.90;58.20;;;;;;4891152;29;20204;-67
2023/01/17 10:30:33;;;;;;;3.40;2.55;;;19.90;58.20;;;;;;4974172;28;20255;-67
2023/01/17 10:33:12;;;;;;;3.40;2.65;;;19.90;58.20;;;;;;4957963;28;20284;-67
2023/01/17 10:36:02;;;;;;;2.70;2.50;;;19.90;58.10;;;;;;4977383;28;20197;-67
2023/01/17 10:38:37;;;;;;;3.83;2.47;;;19.90;58.10;;;;;;4977100;28;20239;-67
2023/01/17 10:41:25;;;;;;;2.50;2.30;;;19.90;58.10;;;;;;4994365;28;20183;-69
2023/01/17 10:44:28;;;;;;;3.10;2.30;;;19.90;58.10;;;;;;4987699;28;20667;-69
2023/01/17 10:47:23;;;;;;;2.33;2.10;;;20.00;58.20;;;;;;4977136;28;20267;-69
2023/01/17 10:49:53;;;;;;;2.53;2.22;;;19.90;58.00;;;;;;5003049;23;20246;-67
2023/01/17 10:52:49;;;;;;;2.55;2.35;;;19.90;58.00;;;;;;4980405;28;20202;-68
2023/01/17 10:55:39;;;;;;;2.30;2.08;;;19.90;58.00;;;;;;4980035;28;20180;-68
2023/01/17 10:58:11;;;;;;;2.38;2.15;;;19.90;58.00;;;;;;4977016;28;20201;-67
2023/01/17 11:01:10;;;;;;;2.90;2.40;;;19.90;57.90;;;;;;5005845;28;20216;-68
2023/01/17 11:03:36;;;;;;;2.70;2.42;;;20.00;58.00;;;;;;4982397;28;20202;-69
2023/01/17 11:06:22;;;;;;;3.58;2.50;;;20.00;57.90;;;;;;4987497;28;20199;-68
2023/01/17 11:08:55;;;;;;;2.85;2.65;;;19.90;58.40;;;;;;4961536;28;20205;-68
2023/01/17 11:11:33;;;;;;;2.38;2.15;;;19.90;57.80;;;;;;4997205;28;20718;-68
2023/01/17 11:14:17;;;;;;;2.70;2.50;;;20.00;57.80;;;;;;4976462;28;20276;-68
2023/01/17 11:16:43;;;;;;;2.28;2.08;;;19.90;57.70;;;;;;4990794;28;20197;-68
2023/01/17 11:19:37;;;;;;;2.00;1.90;;;20.00;57.80;;;;;;4948572;28;20291;-67
2023/01/17 11:22:06;;;;;;;2.22;2.03;;;20.00;57.80;;;;;;4993384;28;20212;-68
2023/01/17 11:24:48;;;;;;;2.05;1.85;;;20.00;57.70;;;;;;4987763;28;20212;-68
2023/01/17 11:27:34;;;;;;;2.40;2.15;;;20.00;57.70;;;;;;4976411;28;20192;-69
2023/01/17 11:30:14;;;;;;;2.30;2.10;;;20.00;57.60;;;;;;4987604;28;20220;-68
2023/01/17 11:32:54;;;;;;;2.22;2.03;;;20.00;57.60;;;;;;4998846;28;20188;-67
2023/01/17 11:35:33;;;;;;;2.05;1.80;;;20.00;57.70;;;;;;5003591;28;20272;-68
2023/01/17 11:38:12;;;;;;;2.20;2.00;;;20.00;57.60;;;;;;4971525;28;20188;-67
2023/01/17 11:40:42;;;;;;;2.40;1.85;;;20.00;57.50;;;;;;4956498;28;20272;-67
2023/01/17 11:43:11;;;;;;;2.00;1.80;;;20.00;57.60;;;;;;4956873;28;20185;-67
2023/01/17 11:45:39;;;;;;;2.00;1.80;;;20.00;57.50;;;;;;4972469;28;20182;-67
2023/01/17 11:48:07;;;;;;;2.28;1.92;;;20.00;57.50;;;;;;4964290;28;20283;-67
2023/01/17 11:50:46;;;;;;;2.28;2.08;;;20.00;57.50;;;;;;4975457;28;20225;-67
2023/01/17 11:53:33;;;;;;;2.58;1.92;;;20.00;57.50;;;;;;4991858;28;20196;-67
2023/01/17 11:56:10;;;;;;;1.52;1.42;;;20.00;57.50;;;;;;4975453;28;20719;-68
2023/01/17 11:58:40;;;;;;;1.85;1.70;;;20.00;57.50;;;;;;4981120;28;20204;-67
2023/01/17 12:01:25;;;;;;;1.80;1.70;;;20.00;57.50;;;;;;4978649;28;20215;-68
2023/01/17 12:04:22;;;;;;;1.95;1.70;;;20.00;57.50;;;;;;4940331;28;20181;-68
2023/01/17 12:07:16;;;;;;;1.92;1.52;;;20.00;57.40;;;;;;4956422;28;20244;-68
2023/01/17 12:10:01;;;;;;;1.70;1.52;;;20.00;57.40;;;;;;4973245;28;20205;-67
2023/01/17 12:16:44;;;;;;;1.50;1.40;;;20.00;57.40;;;;;;4956459;28;20189;-67
2023/01/17 12:19:31;;;;;;;1.58;1.40;;;20.00;57.30;;;;;;4956679;28;20185;-67
2023/01/17 12:22:36;;;;;;;3.90;1.80;;;20.00;57.30;;;;;;4991533;28;20288;-68
2023/01/17 12:25:17;;;;;;;2.00;1.60;;;20.00;57.30;;;;;;4991764;28;20181;-69
2023/01/17 12:28:10;;;;;;;1.85;1.75;;;20.00;57.30;;;;;;4969194;28;20255;-68
2023/01/17 12:31:07;;;;;;;1.50;1.40;;;20.00;57.20;;;;;;4975205;28;20224;-68
2023/01/17 12:33:45;;;;;;;1.92;1.45;;;20.00;57.20;;;;;;4975630;28;20200;-68
2023/01/17 12:36:39;;;;;;;2.35;1.80;;;20.00;57.20;;;;;;4992703;28;20180;-67
2023/01/17 12:39:10;;;;;;;1.60;1.50;;;20.00;57.20;;;;;;4959316;28;20184;-67
2023/01/17 12:41:53;;;;;;;2.28;1.58;;;20.00;57.10;;;;;;4975447;28;20200;-67
2023/01/17 12:44:41;;;;;;;1.60;1.50;;;20.00;57.10;;;;;;4959201;28;20207;-68
2023/01/17 12:47:07;;;;;;;1.52;1.42;;;20.00;57.10;;;;;;4975352;28;20189;-68
2023/01/17 12:50:04;;;;;;;1.60;1.50;;;20.00;57.10;;;;;;4977996;28;20793;-68
2023/01/17 12:52:57;;;;;;;1.60;1.50;;;20.00;57.10;;;;;;4962917;28;20232;-68
2023/01/17 12:55:51;;;;;;;1.45;1.35;;;20.00;57.00;;;;;;4994318;28;20192;-68
2023/01/17 12:58:28;;;;;;;1.55;1.30;;;20.00;57.10;;;;;;4959560;28;20236;-68
2023/01/17 13:01:15;;;;;;;1.30;1.20;;;20.00;56.90;;;;;;4959375;28;20235;-68
2023/01/17 13:04:03;;;;;;;1.40;1.30;;;20.00;57.00;;;;;;4963765;28;20189;-68
2023/01/17 13:06:55;;;;;;;1.73;1.40;;;20.00;57.00;;;;;;4978837;28;20173;-68
2023/01/17 13:09:22;;;;;;;1.65;1.55;;;20.00;56.90;;;;;;4978335;28;20228;-67
2023/01/17 13:12:02;;;;;;;1.60;1.50;;;20.00;56.90;;;;;;4994889;28;20204;-68
2023/01/17 13:14:28;;;;;;;1.67;1.42;;;20.00;56.90;;;;;;4996053;28;20336;-68
2023/01/17 13:17:03;;;;;;;1.60;1.50;;;20.00;56.90;;;;;;4978834;28;20272;-68
2023/01/17 13:19:42;;;;;;;1.80;1.60;;;20.00;56.90;;;;;;4975262;28;20197;-67
2023/01/17 13:22:16;;;;;;;1.63;1.52;;;20.00;57.20;;;;;;4967111;28;20200;-69
2023/01/17 13:25:21;;;;;;;1.40;1.30;;;20.00;57.00;;;;;;4995654;28;20195;-67
2023/01/17 13:28:06;;;;;;;1.30;1.20;;;20.00;57.10;;;;;;4995654;28;20195;-68
2023/01/17 13:31:18;;;;;;;1.70;1.60;;;20.00;57.00;;;;;;4978072;28;20225;-68
2023/01/17 13:34:16;;;;;;;1.50;1.40;;;20.00;57.30;;;;;;4965113;28;20193;-68
2023/01/17 13:37:17;;;;;;;1.50;1.40;;;20.00;57.10;;;;;;4978341;28;20191;-69
2023/01/17 13:39:57;;;;;;;1.67;1.50;;;20.00;57.10;;;;;;4942627;28;20224;-68
2023/01/17 13:42:52;;;;;;;1.80;1.67;;;20.00;57.00;;;;;;4992163;28;20203;-68
2023/01/17 13:45:27;;;;;;;4.50;1.30;;;20.00;57.10;;;;;;5006353;28;20737;-68
2023/01/17 13:48:28;;;;;;;2.30;1.40;;;20.00;57.00;;;;;;4983739;28;20188;-68
2023/01/17 13:51:08;;;;;;;2.30;1.40;;;20.00;57.00;;;;;;4998330;28;20692;-68
2023/01/17 13:53:33;;;;;;;1.95;1.40;;;20.00;57.00;;;;;;4979920;28;20257;-68
2023/01/17 13:56:17;;;;;;;1.40;1.20;;;20.00;57.00;;;;;;4974281;28;20197;-69
2023/01/17 13:58:50;;;;;;;1.50;1.40;;;20.00;57.00;;;;;;4959081;28;20197;-68
2023/01/17 14:01:22;;;;;;;1.75;1.42;;;20.00;57.00;;;;;;4975542;28;20215;-68
2023/01/17 14:03:51;;;;;;;1.50;1.40;;;20.00;57.00;;;;;;4996379;28;20192;-68
2023/01/17 14:06:35;;;;;;;1.38;1.25;;;20.00;56.90;;;;;;4979872;28;20193;-68
2023/01/17 14:09:21;;;;;;;1.55;1.45;;;20.00;56.90;;;;;;4972654;28;20212;-67
2023/01/17 14:12:03;;;;;;;2.20;1.35;;;19.90;56.80;;;;;;4970904;28;20277;-67
2023/01/17 14:14:41;;;;;;;2.13;1.27;;;19.90;56.80;;;;;;4984560;28;20180;-68
2023/01/17 14:17:21;;;;;;;1.40;1.30;;;19.90;56.80;;;;;;4993617;28;20222;-68
2023/01/17 14:19:52;;;;;;;2.15;1.55;;;19.90;56.90;;;;;;4964883;28;20222;-68
2023/01/17 14:22:18;;;;;;;1.88;1.42;;;19.90;56.80;;;;;;4986750;28;20204;-68
2023/01/17 14:25:13;;;;;;;1.50;1.40;;;19.90;56.80;;;;;;5014290;28;20194;-68
2023/01/17 14:28:01;;;;;;;2.85;1.42;;;19.90;57.40;;;;;;4977245;28;20196;-67
2023/01/17 14:30:35;;;;;;;1.70;1.58;;;19.90;56.70;;;;;;4994416;28;20216;-67
2023/01/17 14:33:01;;;;;;;1.70;1.60;;;19.90;56.80;;;;;;4996499;28;20700;-68
2023/01/17 14:35:47;;;;;;;1.77;1.42;;;19.90;56.80;;;;;;4980397;28;20276;-68
2023/01/17 14:38:30;;;;;;;2.33;1.85;;;19.90;56.80;;;;;;4993482;28;20173;-68
2023/01/17 14:41:23;;;;;;;1.85;1.60;;;19.90;56.70;;;;;;4994352;28;20217;-67
2023/01/17 14:43:50;;;;;;;1.70;1.52;;;19.90;56.70;;;;;;4977444;28;20272;-68
2023/01/17 14:46:27;;;;;;;2.00;1.90;;;19.90;56.70;;;;;;4976976;28;20193;-68
2023/01/17 14:49:24;;;;;;;2.13;1.85;;;19.90;56.70;;;;;;4993176;28;20215;-68